Time;durP1;ratioP1;P1;durP2;ratioP2;P2;SDS_P1;SDS_P2;PMS_P1;PMS_P2;Temp;Humidity;BMP_temperature;BMP_pressure;BME280_temperature;BME280_humidity;BME280_pressure;Samples;Min_cycle;Max_cycle;Signal;HPM_P1;HPM_P2
2021/12/29 00:01:23;;;;;;;33.92;14.35;;;;;;;8.21;100.00;99750.31;5025708;28;20050;-78
2021/12/29 00:03:48;;;;;;;42.15;15.55;;;;;;;8.22;100.00;99748.50;5023331;28;20050;-78
2021/12/29 00:06:14;;;;;;;46.33;14.57;;;;;;;8.19;100.00;99752.34;5009071;28;20049;-78
2021/12/29 00:08:39;;;;;;;51.33;14.85;;;;;;;8.22;100.00;99751.22;5015537;28;20051;-78
2021/12/29 00:11:06;;;;;;;52.20;15.98;;;;;;;8.14;100.00;99746.41;5010598;28;20061;-78
2021/12/29 00:13:32;;;;;;;47.67;15.18;;;;;;;8.18;100.00;99755.19;5005811;28;20097;-78
2021/12/29 00:15:58;;;;;;;48.53;14.45;;;;;;;8.22;100.00;99757.53;5020933;28;20034;-78
2021/12/29 00:18:29;;;;;;;42.47;16.55;;;;;;;8.25;100.00;99764.59;5010605;28;20038;-78
2021/12/29 00:20:56;;;;;;;52.10;16.63;;;;;;;8.25;100.00;99770.03;5023919;28;20034;-78
2021/12/29 00:23:22;;;;;;;52.47;17.77;;;;;;;8.19;100.00;99782.31;5008155;28;20022;-79
2021/12/29 00:25:47;;;;;;;54.65;18.35;;;;;;;8.23;100.00;99804.72;5023681;28;20557;-78
2021/12/29 00:28:14;;;;;;;53.33;19.25;;;;;;;8.22;100.00;99798.41;5019590;28;20058;-78
2021/12/29 00:30:41;;;;;;;50.03;18.40;;;;;;;8.28;100.00;99814.25;4997139;28;20038;-78
2021/12/29 00:33:06;;;;;;;50.90;19.08;;;;;;;8.27;100.00;99819.84;5006800;28;20057;-78
2021/12/29 00:35:34;;;;;;;54.50;18.10;;;;;;;8.24;100.00;99823.69;5016753;28;20027;-78
2021/12/29 00:38:02;;;;;;;44.45;17.50;;;;;;;8.27;100.00;99834.34;5003637;28;20046;-78
2021/12/29 00:40:29;;;;;;;45.30;17.13;;;;;;;8.25;100.00;99835.47;5022644;28;20093;-78
2021/12/29 00:42:55;;;;;;;48.20;16.83;;;;;;;8.28;100.00;99851.59;5014854;28;20034;-78
2021/12/29 00:45:21;;;;;;;51.58;17.40;;;;;;;8.26;100.00;99848.09;5013500;28;20076;-78
2021/12/29 00:47:49;;;;;;;36.97;15.73;;;;;;;8.24;100.00;99861.88;5020691;28;20041;-78
2021/12/29 00:50:16;;;;;;;43.67;16.33;;;;;;;8.25;100.00;99860.88;5016291;28;20081;-78
2021/12/29 00:52:46;;;;;;;36.28;14.35;;;;;;;8.28;100.00;99870.69;5016230;28;20042;-78
2021/12/29 00:55:14;;;;;;;42.72;16.55;;;;;;;8.26;100.00;99864.47;5022984;28;20030;-78
2021/12/29 00:57:39;;;;;;;32.35;13.50;;;;;;;8.24;100.00;99872.78;5038865;28;20512;-78
2021/12/29 01:00:16;;;;;;;35.15;13.65;;;;;;;8.21;100.00;99891.25;5020666;28;20034;-78
2021/12/29 01:02:42;;;;;;;38.28;14.13;;;;;;;8.25;100.00;99888.16;5019083;28;20081;-78
2021/12/29 01:05:09;;;;;;;37.90;12.95;;;;;;;8.19;100.00;99883.22;5022011;28;20049;-78
2021/12/29 01:07:35;;;;;;;38.63;13.52;;;;;;;8.24;100.00;99893.72;5006296;28;20030;-78
2021/12/29 01:10:02;;;;;;;50.50;14.15;;;;;;;8.19;100.00;99891.38;5011038;28;20552;-78
2021/12/29 01:12:28;;;;;;;43.53;13.77;;;;;;;8.16;100.00;99899.81;5030845;28;20037;-78
2021/12/29 01:14:55;;;;;;;34.65;13.10;;;;;;;8.21;100.00;99911.19;5020660;28;20025;-78
2021/12/29 01:17:22;;;;;;;32.58;12.13;;;;;;;8.24;100.00;99915.53;5019882;28;20026;-78
2021/12/29 01:19:50;;;;;;;35.50;12.20;;;;;;;8.24;100.00;99918.28;5020388;28;20080;-78
2021/12/29 01:22:16;;;;;;;28.88;11.13;;;;;;;8.19;100.00;99920.53;5019308;28;20034;-78
2021/12/29 01:24:46;;;;;;;38.10;12.25;;;;;;;8.20;100.00;99923.13;5020435;28;20034;-78
2021/12/29 01:27:13;;;;;;;31.45;11.05;;;;;;;8.19;100.00;99928.72;5003200;28;20049;-78
2021/12/29 01:29:38;;;;;;;30.45;11.23;;;;;;;8.20;100.00;99936.75;5010715;28;20038;-78
2021/12/29 01:32:04;;;;;;;25.25;9.55;;;;;;;8.18;100.00;99932.41;5030496;28;20045;-78
2021/12/29 01:34:29;;;;;;;26.77;9.63;;;;;;;8.22;100.00;99951.13;5019302;28;20040;-78
2021/12/29 01:36:55;;;;;;;23.75;9.57;;;;;;;8.18;100.00;99955.13;5016532;28;20054;-78
2021/12/29 01:39:21;;;;;;;23.17;9.70;;;;;;;8.21;100.00;99953.97;4987759;28;20078;-78
2021/12/29 01:41:49;;;;;;;22.33;10.20;;;;;;;8.16;100.00;99959.81;4997593;28;20046;-78
2021/12/29 01:44:17;;;;;;;24.45;10.68;;;;;;;8.18;100.00;99966.03;5023831;28;20022;-78
2021/12/29 01:46:45;;;;;;;26.77;10.35;;;;;;;8.24;100.00;99973.66;4987771;28;20050;-78
2021/12/29 01:49:11;;;;;;;28.58;11.23;;;;;;;8.21;100.00;99983.97;5005587;28;20045;-78
2021/12/29 01:51:47;;;;;;;30.45;12.20;;;;;;;8.15;100.00;99981.75;5013376;28;20070;-78
2021/12/29 01:54:23;;;;;;;28.77;11.90;;;;;;;8.20;100.00;99977.66;5025082;28;20044;-78
2021/12/29 01:56:52;;;;;;;26.95;11.18;;;;;;;8.22;100.00;99993.91;5024174;28;20097;-78
2021/12/29 01:59:17;;;;;;;28.60;12.05;;;;;;;8.25;100.00;99989.06;5021359;28;20026;-78
2021/12/29 02:01:44;;;;;;;33.30;13.30;;;;;;;8.20;100.00;99993.13;5023431;28;20444;-78
2021/12/29 02:04:09;;;;;;;31.67;13.75;;;;;;;8.19;100.00;99995.00;5021265;28;20029;-78
2021/12/29 02:06:36;;;;;;;35.10;14.55;;;;;;;8.17;100.00;99990.69;5016882;28;20770;-78
2021/12/29 02:09:02;;;;;;;36.30;14.63;;;;;;;8.19;100.00;100005.91;5004279;28;20391;-78
2021/12/29 02:11:31;;;;;;;34.65;14.50;;;;;;;8.15;100.00;100001.72;5001269;28;20102;-78
2021/12/29 02:14:03;;;;;;;37.75;15.52;;;;;;;8.18;100.00;99998.75;5005999;28;20034;-78
2021/12/29 02:16:29;;;;;;;41.22;16.48;;;;;;;8.22;100.00;100012.97;5006051;28;20509;-78
2021/12/29 02:18:57;;;;;;;43.28;17.92;;;;;;;8.20;100.00;100025.84;5002813;28;20034;-78
2021/12/29 02:21:24;;;;;;;43.13;16.92;;;;;;;8.20;100.00;100025.84;5017510;28;20753;-78
2021/12/29 02:26:33;;;;;;;55.65;19.00;;;;;;;8.18;100.00;100025.13;5003562;28;20038;-78
2021/12/29 02:29:01;;;;;;;45.30;18.17;;;;;;;8.17;100.00;100032.44;5005622;28;20068;-78
2021/12/29 02:31:27;;;;;;;43.28;19.17;;;;;;;8.15;100.00;100020.81;4999488;28;20031;-78
2021/12/29 02:33:54;;;;;;;53.92;20.20;;;;;;;8.20;100.00;100026.75;5006774;28;20031;-78
2021/12/29 02:36:21;;;;;;;54.58;21.00;;;;;;;8.17;100.00;100035.19;5009878;28;20569;-77
2021/12/29 02:38:52;;;;;;;54.10;21.00;;;;;;;8.12;100.00;100031.97;5016877;28;20073;-78
2021/12/29 02:41:18;;;;;;;64.43;21.33;;;;;;;8.09;100.00;100027.63;5021640;28;20042;-78
2021/12/29 02:43:45;;;;;;;47.53;19.75;;;;;;;8.14;100.00;100031.84;5017038;28;20081;-78
2021/12/29 02:46:14;;;;;;;52.78;19.63;;;;;;;8.14;100.00;100038.16;5003493;28;20035;-78
2021/12/29 02:48:50;;;;;;;49.25;20.05;;;;;;;8.18;100.00;100044.22;5012852;28;20026;-78
2021/12/29 02:51:16;;;;;;;59.13;21.40;;;;;;;8.14;100.00;100051.78;5009728;28;20034;-78
2021/12/29 02:53:41;;;;;;;56.42;21.67;;;;;;;8.12;100.00;100058.34;5005749;28;20030;-77
2021/12/29 02:56:07;;;;;;;66.00;22.77;;;;;;;8.10;100.00;100051.19;5004186;28;20037;-78
2021/12/29 02:58:32;;;;;;;62.20;21.23;;;;;;;8.13;100.00;100052.75;5004662;28;20053;-77
2021/12/29 03:01:01;;;;;;;64.15;24.90;;;;;;;8.12;100.00;100048.31;5013148;28;20038;-78
2021/12/29 03:03:30;;;;;;;72.65;24.52;;;;;;;8.09;100.00;100048.56;5011230;28;20113;-78
2021/12/29 03:05:56;;;;;;;67.03;23.08;;;;;;;8.14;100.00;100061.84;5013260;28;20108;-77
2021/12/29 03:08:23;;;;;;;75.78;25.58;;;;;;;8.09;100.00;100059.47;5018215;28;20125;-78
2021/12/29 03:10:52;;;;;;;70.63;25.25;;;;;;;8.09;100.00;100068.50;5004939;28;20098;-78
2021/12/29 03:13:26;;;;;;;72.90;25.30;;;;;;;8.11;100.00;100068.38;5003494;28;20031;-78
2021/12/29 03:15:52;;;;;;;82.60;26.23;;;;;;;8.08;100.00;100069.53;5006684;28;20037;-77
2021/12/29 03:18:18;;;;;;;80.25;26.65;;;;;;;8.08;100.00;100083.16;5003951;28;20092;-78
2021/12/29 03:20:44;;;;;;;84.38;28.17;;;;;;;8.06;100.00;100084.25;5020572;28;20034;-78
2021/12/29 03:23:10;;;;;;;82.85;26.88;;;;;;;8.06;100.00;100096.03;5022771;28;20034;-78
2021/12/29 03:25:36;;;;;;;74.10;24.50;;;;;;;8.10;100.00;100091.22;5011113;28;20061;-78
2021/12/29 03:28:01;;;;;;;81.00;28.25;;;;;;;8.09;100.00;100094.91;5019844;28;20050;-78
2021/12/29 03:30:29;;;;;;;77.30;27.58;;;;;;;8.07;100.00;100100.50;5004501;28;20066;-78
2021/12/29 03:33:03;;;;;;;86.72;28.67;;;;;;;8.06;100.00;100109.66;5017164;28;20041;-77
2021/12/29 03:35:34;;;;;;;71.97;27.98;;;;;;;8.11;100.00;100114.75;4999991;28;20212;-78
2021/12/29 03:38:02;;;;;;;84.60;28.35;;;;;;;8.03;100.00;100118.06;5017213;28;20046;-78
2021/12/29 03:40:28;;;;;;;82.40;27.55;;;;;;;8.14;100.00;100130.84;5004626;28;20040;-78
2021/12/29 03:42:56;;;;;;;86.63;27.77;;;;;;;8.05;100.00;100134.31;5004355;28;20041;-78
2021/12/29 03:45:22;;;;;;;87.57;29.73;;;;;;;8.04;100.00;100132.59;5022231;28;20547;-78
2021/12/29 03:47:48;;;;;;;80.07;28.80;;;;;;;8.04;100.00;100138.03;5008876;28;20073;-78
2021/12/29 03:50:13;;;;;;;78.78;27.80;;;;;;;8.13;100.00;100139.16;5025171;28;20050;-78
2021/12/29 03:52:39;;;;;;;88.30;29.00;;;;;;;8.07;100.00;100135.09;5019011;28;20377;-78
2021/12/29 03:55:05;;;;;;;76.80;28.15;;;;;;;8.05;100.00;100135.19;5004245;28;20033;-77
2021/12/29 03:57:30;;;;;;;82.78;28.75;;;;;;;8.07;100.00;100140.53;5005465;28;20034;-77
2021/12/29 03:59:56;;;;;;;92.85;28.88;;;;;;;8.06;100.00;100131.47;5004083;28;20077;-77
2021/12/29 04:02:21;;;;;;;82.10;27.10;;;;;;;8.05;100.00;100148.84;5009446;28;20049;-77
2021/12/29 04:04:47;;;;;;;92.85;28.05;;;;;;;8.08;100.00;100153.16;5009833;28;20041;-77
2021/12/29 04:07:13;;;;;;;90.68;27.75;;;;;;;8.02;100.00;100146.34;5018860;28;20033;-78
2021/12/29 04:09:38;;;;;;;91.78;26.70;;;;;;;8.03;100.00;100158.09;5002057;28;20033;-78
2021/12/29 04:12:04;;;;;;;79.68;26.58;;;;;;;7.99;100.00;100157.50;5001955;28;20091;-78
2021/12/29 04:14:30;;;;;;;70.75;25.27;;;;;;;8.04;100.00;100157.13;5016903;28;20076;-78
2021/12/29 04:16:57;;;;;;;82.28;27.08;;;;;;;7.97;100.00;100161.31;5020063;28;20030;-78
2021/12/29 04:19:39;;;;;;;75.40;27.23;;;;;;;8.02;100.00;100168.16;5019329;28;20045;-78
2021/12/29 04:22:07;;;;;;;80.53;27.37;;;;;;;8.01;100.00;100180.03;5000399;28;20044;-78
2021/12/29 04:24:33;;;;;;;86.13;26.70;;;;;;;7.99;100.00;100173.00;5007093;28;20034;-78
2021/12/29 04:27:00;;;;;;;73.07;26.52;;;;;;;8.01;100.00;100173.72;5013139;28;20057;-78
2021/12/29 04:29:26;;;;;;;79.10;27.58;;;;;;;8.02;100.00;100178.22;5005881;28;20401;-78
2021/12/29 04:31:51;;;;;;;93.15;26.13;;;;;;;7.99;100.00;100189.34;5014373;28;20037;-78
2021/12/29 04:34:16;;;;;;;91.25;27.30;;;;;;;7.97;100.00;100189.47;5009749;28;20042;-78
2021/12/29 04:36:42;;;;;;;78.43;26.67;;;;;;;7.95;100.00;100188.69;5007812;28;20033;-78
2021/12/29 04:39:08;;;;;;;89.57;29.63;;;;;;;8.00;100.00;100191.94;5001578;28;20092;-78
2021/12/29 04:41:33;;;;;;;84.90;25.13;;;;;;;7.97;100.00;100194.03;5018550;28;20030;-78
2021/12/29 04:43:59;;;;;;;78.60;26.08;;;;;;;7.99;100.00;100202.97;5013493;28;20425;-78
2021/12/29 04:46:35;;;;;;;79.38;26.02;;;;;;;7.92;100.00;100194.41;5018592;28;20157;-78
2021/12/29 04:49:02;;;;;;;95.45;27.30;;;;;;;7.93;100.00;100208.91;5003537;28;20128;-78
2021/12/29 04:51:35;;;;;;;84.95;27.48;;;;;;;7.99;100.00;100208.44;5025439;28;20050;-78
2021/12/29 04:54:02;;;;;;;95.38;28.73;;;;;;;7.94;100.00;100208.78;5019307;28;20026;-78
2021/12/29 04:56:27;;;;;;;92.03;27.95;;;;;;;7.95;100.00;100215.09;5004594;28;20041;-77
2021/12/29 04:58:53;;;;;;;97.45;28.90;;;;;;;7.88;100.00;100217.44;5010006;28;20030;-78
2021/12/29 05:01:18;;;;;;;92.68;27.30;;;;;;;7.94;100.00;100218.84;5001188;28;20450;-78
2021/12/29 05:03:44;;;;;;;81.65;26.23;;;;;;;7.93;100.00;100230.72;5000747;28;20035;-77
2021/12/29 05:08:37;;;;;;;92.85;27.45;;;;;;;7.93;100.00;100236.16;5009189;28;20035;-77
2021/12/29 05:11:06;;;;;;;88.28;27.50;;;;;;;7.96;100.00;100227.75;5003891;28;20069;-77
2021/12/29 05:13:34;;;;;;;79.45;28.60;;;;;;;7.94;100.00;100236.03;5015467;28;20045;-77
2021/12/29 05:16:00;;;;;;;84.05;27.85;;;;;;;7.95;100.00;100237.75;5000697;28;20069;-76
2021/12/29 05:18:29;;;;;;;85.18;27.77;;;;;;;7.92;100.00;100235.31;5014115;28;20049;-77
2021/12/29 05:20:55;;;;;;;88.63;27.88;;;;;;;7.93;100.00;100233.44;5007548;28;20379;-77
2021/12/29 05:23:21;;;;;;;81.85;27.38;;;;;;;7.98;100.00;100239.41;5014648;28;20037;-77
2021/12/29 05:25:47;;;;;;;80.78;29.73;;;;;;;7.95;100.00;100243.22;4997841;28;20136;-77
2021/12/29 05:28:13;;;;;;;87.65;28.63;;;;;;;7.90;100.00;100235.41;5002603;28;20092;-77
2021/12/29 05:30:39;;;;;;;87.75;28.73;;;;;;;7.92;100.00;100243.47;4997583;28;20037;-77
2021/12/29 05:33:05;;;;;;;79.95;28.27;;;;;;;7.89;100.00;100241.00;5005981;28;20372;-77
2021/12/29 05:35:31;;;;;;;84.75;28.77;;;;;;;7.90;100.00;100238.16;5010720;28;20037;-77
2021/12/29 05:37:57;;;;;;;100.57;29.52;;;;;;;7.91;100.00;100237.13;5015168;28;20046;-77
2021/12/29 05:40:24;;;;;;;90.35;28.75;;;;;;;7.88;100.00;100248.28;4989950;28;20030;-77
2021/12/29 05:42:50;;;;;;;99.20;30.48;;;;;;;7.88;100.00;100247.41;5008809;28;20030;-77
2021/12/29 05:45:16;;;;;;;81.25;29.05;;;;;;;7.88;100.00;100245.56;5000318;28;20085;-77
2021/12/29 05:47:42;;;;;;;90.18;30.73;;;;;;;7.88;100.00;100241.97;4996761;28;20402;-77
2021/12/29 05:50:11;;;;;;;91.25;29.77;;;;;;;7.94;100.00;100257.00;5002584;28;20545;-77
2021/12/29 05:52:37;;;;;;;73.93;27.17;;;;;;;7.87;100.00;100259.28;4998097;28;20030;-77
2021/12/29 05:55:04;;;;;;;83.20;28.77;;;;;;;7.88;100.00;100256.44;5000746;28;20451;-77
2021/12/29 05:57:30;;;;;;;85.50;30.42;;;;;;;7.91;100.00;100260.81;5009192;28;20041;-77
2021/12/29 05:59:56;;;;;;;88.97;29.65;;;;;;;7.91;100.00;100258.09;5013563;28;20050;-77
2021/12/29 06:02:21;;;;;;;82.45;28.58;;;;;;;7.87;100.00;100267.47;5012940;28;20135;-77
2021/12/29 06:04:47;;;;;;;78.28;29.15;;;;;;;7.92;100.00;100254.38;5013267;28;20239;-77
2021/12/29 06:07:13;;;;;;;73.47;28.55;;;;;;;7.94;100.00;100266.03;4996731;28;20026;-77
2021/12/29 06:09:39;;;;;;;76.00;27.95;;;;;;;7.88;100.00;100256.44;4991958;28;20046;-77
2021/12/29 06:12:05;;;;;;;79.85;29.15;;;;;;;7.88;100.00;100264.63;5004049;28;20497;-78
2021/12/29 06:14:31;;;;;;;85.43;30.48;;;;;;;7.91;100.00;100258.94;4985231;28;20034;-77
2021/12/29 06:16:56;;;;;;;85.47;31.35;;;;;;;7.88;100.00;100271.94;5007122;28;20022;-77
2021/12/29 06:19:22;;;;;;;77.72;28.25;;;;;;;7.91;100.00;100283.47;5014556;28;20093;-77
2021/12/29 06:21:47;;;;;;;77.57;27.60;;;;;;;7.93;100.00;100285.22;5001553;28;20030;-77
2021/12/29 06:24:13;;;;;;;71.90;28.65;;;;;;;7.88;100.00;100280.13;4993062;28;20045;-78
2021/12/29 06:26:38;;;;;;;87.32;29.20;;;;;;;7.94;100.00;100286.97;5006936;28;20053;-77
2021/12/29 06:29:04;;;;;;;82.53;27.95;;;;;;;7.91;100.00;100290.78;5017136;28;20044;-78
2021/12/29 06:31:29;;;;;;;75.75;28.70;;;;;;;7.91;100.00;100296.25;5011430;28;20501;-77
2021/12/29 06:33:55;;;;;;;76.40;27.45;;;;;;;7.87;100.00;100298.34;5011817;28;20445;-78
2021/12/29 06:36:20;;;;;;;81.18;27.83;;;;;;;7.86;100.00;100314.81;4992022;28;20042;-77
2021/12/29 06:38:46;;;;;;;80.95;28.08;;;;;;;7.87;100.00;100303.78;4996936;28;20054;-78
2021/12/29 06:41:11;;;;;;;84.68;28.25;;;;;;;7.85;100.00;100313.06;5007561;28;20038;-77
2021/12/29 06:43:37;;;;;;;74.30;27.70;;;;;;;7.87;100.00;100311.09;4999142;28;20034;-77
2021/12/29 06:46:02;;;;;;;83.30;26.85;;;;;;;7.87;100.00;100324.72;5012894;28;20285;-77
2021/12/29 06:48:28;;;;;;;85.60;27.33;;;;;;;7.85;100.00;100316.66;5009734;28;20057;-77
2021/12/29 06:50:54;;;;;;;77.95;24.80;;;;;;;7.82;100.00;100324.19;4992133;28;20026;-77
2021/12/29 06:53:19;;;;;;;75.43;25.95;;;;;;;7.76;100.00;100313.78;5004758;28;20049;-77
2021/12/29 06:55:45;;;;;;;74.57;24.58;;;;;;;7.83;100.00;100321.34;5005258;28;20037;-77
2021/12/29 06:58:11;;;;;;;63.38;23.80;;;;;;;7.86;100.00;100323.84;4994820;28;20042;-77
2021/12/29 07:00:37;;;;;;;68.40;25.17;;;;;;;7.87;100.00;100316.53;5006078;28;20038;-77
2021/12/29 07:03:04;;;;;;;62.30;22.60;;;;;;;7.87;100.00;100331.06;4991727;28;20078;-77
2021/12/29 07:05:30;;;;;;;63.38;23.52;;;;;;;7.81;100.00;100326.06;4977263;28;20383;-77
2021/12/29 07:07:56;;;;;;;69.80;23.45;;;;;;;7.83;100.00;100334.13;4998703;28;20030;-77
2021/12/29 07:10:22;;;;;;;71.15;23.70;;;;;;;7.80;100.00;100329.75;5010252;28;20031;-78
2021/12/29 07:12:48;;;;;;;70.40;21.33;;;;;;;7.84;100.00;100330.44;4993735;28;20026;-78
2021/12/29 07:15:14;;;;;;;70.78;22.55;;;;;;;7.74;100.00;100322.06;5009034;28;20099;-78
2021/12/29 07:17:40;;;;;;;70.97;21.63;;;;;;;7.75;100.00;100323.78;5000767;28;20034;-78
2021/12/29 07:20:06;;;;;;;71.93;22.23;;;;;;;7.78;100.00;100331.75;4992802;28;20014;-77
2021/12/29 07:22:31;;;;;;;67.32;20.00;;;;;;;7.78;100.00;100344.50;5012138;28;20026;-77
2021/12/29 07:24:57;;;;;;;72.47;21.08;;;;;;;7.75;100.00;100348.31;5025084;28;20453;-77
2021/12/29 07:27:22;;;;;;;63.95;20.23;;;;;;;7.75;100.00;100351.03;5006141;28;20049;-77
2021/12/29 07:29:48;;;;;;;66.72;21.40;;;;;;;7.74;100.00;100357.50;5013459;28;20025;-77
2021/12/29 07:32:14;;;;;;;60.78;20.13;;;;;;;7.75;100.00;100356.50;5000646;28;20456;-77
2021/12/29 07:34:39;;;;;;;59.63;20.27;;;;;;;7.79;100.00;100362.59;5002874;28;20113;-77
2021/12/29 07:37:05;;;;;;;48.70;18.73;;;;;;;7.75;100.00;100361.09;4996041;28;20085;-78
2021/12/29 07:39:30;;;;;;;55.70;19.33;;;;;;;7.75;100.00;100370.13;4997642;28;20046;-77
2021/12/29 07:41:56;;;;;;;49.78;20.05;;;;;;;7.78;100.00;100369.91;4996658;28;20042;-77
2021/12/29 07:44:25;;;;;;;48.40;20.00;;;;;;;7.68;100.00;100372.44;4999591;28;20037;-78
2021/12/29 07:46:54;;;;;;;65.88;20.05;;;;;;;7.74;100.00;100379.31;5001296;28;20482;-78
2021/12/29 07:49:20;;;;;;;56.80;22.23;;;;;;;7.76;100.00;100390.09;5008452;28;20034;-78
2021/12/29 07:51:46;;;;;;;56.33;18.85;;;;;;;7.77;100.00;100384.50;5007582;28;20032;-78
2021/12/29 07:54:13;;;;;;;49.80;18.90;;;;;;;7.79;100.00;100389.81;5003492;28;20034;-79
2021/12/29 07:56:40;;;;;;;55.15;20.38;;;;;;;7.73;100.00;100392.03;4992907;28;20486;-78
2021/12/29 07:59:05;;;;;;;60.17;20.85;;;;;;;7.71;100.00;100385.84;5002321;28;20390;-78
2021/12/29 08:01:31;;;;;;;54.30;19.13;;;;;;;7.73;100.00;100385.72;5010379;28;20058;-78
2021/12/29 08:03:57;;;;;;;57.58;20.45;;;;;;;7.72;100.00;100390.31;4992264;28;20021;-79
2021/12/29 08:06:22;;;;;;;56.08;20.15;;;;;;;7.73;100.00;100396.63;5010345;28;20394;-81
2021/12/29 08:08:48;;;;;;;57.72;21.00;;;;;;;7.67;100.00;100391.63;4996238;28;20041;-78
2021/12/29 08:11:14;;;;;;;52.38;19.88;;;;;;;7.70;100.00;100391.41;4997551;28;20053;-79
2021/12/29 08:13:39;;;;;;;48.80;20.52;;;;;;;7.71;100.00;100391.28;5008123;28;20042;-79
2021/12/29 08:16:05;;;;;;;48.85;19.50;;;;;;;7.74;100.00;100398.38;5007247;28;20034;-80
2021/12/29 08:18:31;;;;;;;53.67;20.55;;;;;;;7.68;100.00;100387.94;5015605;28;20060;-80
2021/12/29 08:20:56;;;;;;;55.30;21.58;;;;;;;7.73;100.00;100397.47;5027262;28;20034;-79
2021/12/29 08:23:22;;;;;;;47.53;20.02;;;;;;;7.71;100.00;100399.47;4994366;28;20045;-79
2021/12/29 08:25:47;;;;;;;46.72;19.63;;;;;;;7.72;100.00;100405.78;5005753;28;20039;-78
2021/12/29 08:28:13;;;;;;;45.13;20.58;;;;;;;7.70;100.00;100405.88;5007060;28;20043;-79
2021/12/29 08:30:39;;;;;;;49.83;20.40;;;;;;;7.71;100.00;100395.88;5009736;28;20026;-79
2021/12/29 08:33:04;;;;;;;54.60;20.20;;;;;;;7.74;100.00;100398.38;4998160;28;20039;-79
2021/12/29 08:35:31;;;;;;;48.72;20.90;;;;;;;7.73;100.00;100399.34;4997893;28;20030;-79
2021/12/29 08:37:58;;;;;;;50.22;18.92;;;;;;;7.70;100.00;100399.56;5008774;28;20080;-78
2021/12/29 08:40:25;;;;;;;53.78;22.05;;;;;;;7.74;100.00;100401.09;5010788;28;20029;-79
2021/12/29 08:42:50;;;;;;;44.85;20.40;;;;;;;7.71;100.00;100401.31;4979376;28;20034;-79
2021/12/29 08:45:17;;;;;;;48.80;21.17;;;;;;;7.69;100.00;100400.56;4989559;28;20142;-80
2021/12/29 08:47:44;;;;;;;58.28;21.13;;;;;;;7.71;100.00;100398.59;5016299;28;20032;-80
2021/12/29 08:50:17;;;;;;;57.03;22.20;;;;;;;7.72;100.00;100408.50;5009069;28;20034;-80
2021/12/29 08:52:43;;;;;;;44.65;20.63;;;;;;;7.69;100.00;100416.91;4995713;28;20034;-80
2021/12/29 08:55:11;;;;;;;53.03;21.45;;;;;;;7.69;100.00;100403.28;5008548;28;20470;-80
2021/12/29 08:57:37;;;;;;;52.95;21.17;;;;;;;7.72;100.00;100411.22;5009935;28;20034;-80
2021/12/29 09:00:07;;;;;;;53.70;22.48;;;;;;;7.70;100.00;100416.78;5013555;28;20363;-79
2021/12/29 09:02:32;;;;;;;53.80;20.20;;;;;;;7.69;100.00;100400.56;5008760;28;20049;-79
2021/12/29 09:04:57;;;;;;;52.30;20.08;;;;;;;7.78;100.00;100394.41;5005401;28;20030;-82
2021/12/29 09:07:23;;;;;;;47.80;20.38;;;;;;;7.71;100.00;100387.72;4978832;28;20078;-79
2021/12/29 09:09:48;;;;;;;49.85;19.35;;;;;;;7.78;100.00;100393.56;4996599;28;20374;-79
2021/12/29 09:12:14;;;;;;;47.33;19.55;;;;;;;7.76;100.00;100403.72;5019888;28;20073;-79
2021/12/29 09:14:39;;;;;;;44.45;20.15;;;;;;;7.76;100.00;100406.44;5004447;28;20041;-79
2021/12/29 09:17:05;;;;;;;43.97;19.00;;;;;;;7.78;100.00;100407.19;5014253;28;20100;-80
2021/12/29 09:19:34;;;;;;;48.47;20.80;;;;;;;7.85;100.00;100409.31;4998863;28;20054;-81
2021/12/29 09:21:59;;;;;;;45.42;19.52;;;;;;;7.89;100.00;100412.72;4994211;28;20311;-81
2021/12/29 09:24:24;;;;;;;43.53;19.30;;;;;;;7.87;100.00;100392.84;4987131;28;20033;-81
2021/12/29 09:26:50;;;;;;;40.50;18.70;;;;;;;7.91;100.00;100403.41;5010607;28;20372;-81
2021/12/29 09:29:16;;;;;;;39.17;18.52;;;;;;;7.93;100.00;100406.03;4987563;28;20543;-80
2021/12/29 09:31:41;;;;;;;52.35;19.92;;;;;;;7.95;100.00;100408.63;4998434;28;20501;-79
2021/12/29 09:34:07;;;;;;;40.17;19.02;;;;;;;7.94;100.00;100387.84;5009643;28;20026;-80
2021/12/29 09:36:33;;;;;;;40.00;18.13;;;;;;;7.97;100.00;100401.19;5010809;28;20042;-80
2021/12/29 09:39:00;;;;;;;47.28;19.40;;;;;;;8.01;100.00;100403.59;5015279;28;20518;-80
2021/12/29 09:41:26;;;;;;;37.83;18.50;;;;;;;8.04;100.00;100392.44;5011619;28;20061;-81
2021/12/29 09:43:51;;;;;;;42.20;19.17;;;;;;;8.03;100.00;100403.47;4999746;28;20390;-81
2021/12/29 09:46:17;;;;;;;36.35;16.67;;;;;;;8.03;100.00;100390.69;5012639;28;20047;-81
2021/12/29 09:48:43;;;;;;;37.67;18.17;;;;;;;8.01;100.00;100386.38;5010776;28;20434;-81
2021/12/29 09:51:13;;;;;;;37.47;16.85;;;;;;;8.07;100.00;100391.38;4996627;28;20049;-81
2021/12/29 09:53:40;;;;;;;44.03;16.23;;;;;;;8.08;100.00;100395.81;4996475;28;20032;-81
2021/12/29 09:56:09;;;;;;;44.00;18.00;;;;;;;8.12;100.00;100400.06;5010942;28;20101;-81
2021/12/29 09:58:35;;;;;;;33.67;16.13;;;;;;;8.17;100.00;100391.53;5010464;28;20527;-81
2021/12/29 10:01:05;;;;;;;44.22;18.05;;;;;;;8.08;100.00;100393.09;4995182;28;20030;-81
2021/12/29 10:03:34;;;;;;;31.92;16.48;;;;;;;8.11;100.00;100395.56;5008859;28;20481;-81
2021/12/29 10:06:03;;;;;;;38.90;17.80;;;;;;;8.07;100.00;100388.63;4995709;28;20080;-81
2021/12/29 10:08:54;;;;;;;42.92;16.52;;;;;;;8.07;100.00;100386.78;5003486;28;20045;-80
2021/12/29 10:11:29;;;;;;;28.15;15.30;;;;;;;8.15;100.00;100385.28;5014183;28;20045;-81
2021/12/29 10:13:58;;;;;;;30.17;13.00;;;;;;;8.14;100.00;100375.41;5013370;28;20219;-81
2021/12/29 10:16:29;;;;;;;30.75;13.18;;;;;;;8.18;100.00;100374.16;4982389;28;20070;-81
2021/12/29 10:19:00;;;;;;;29.48;11.77;;;;;;;8.23;100.00;100383.75;4997706;28;20026;-80
2021/12/29 10:21:26;;;;;;;28.67;12.55;;;;;;;8.39;100.00;100402.50;5007119;28;20084;-80
2021/12/29 10:23:54;;;;;;;27.90;11.55;;;;;;;8.50;100.00;100396.25;4996063;28;20035;-81
2021/12/29 10:26:23;;;;;;;32.10;12.02;;;;;;;8.66;100.00;100393.19;4994976;28;20039;-80
2021/12/29 10:28:55;;;;;;;22.05;10.80;;;;;;;8.70;100.00;100393.81;4996776;28;20049;-81
2021/12/29 10:31:24;;;;;;;26.02;10.95;;;;;;;8.72;100.00;100389.09;5012638;28;20041;-81
2021/12/29 10:33:55;;;;;;;28.02;10.85;;;;;;;8.73;100.00;100388.13;5015316;28;20473;-81
2021/12/29 10:36:26;;;;;;;22.05;10.85;;;;;;;8.73;100.00;100377.22;5011948;28;20026;-81
2021/12/29 10:39:01;;;;;;;29.77;12.05;;;;;;;8.73;100.00;100369.03;4996930;28;20122;-81
2021/12/29 10:41:28;;;;;;;20.50;10.25;;;;;;;8.80;100.00;100370.25;5015423;28;20034;-81
2021/12/29 10:44:00;;;;;;;33.88;10.48;;;;;;;8.78;100.00;100364.06;5010069;28;20030;-80
2021/12/29 10:46:27;;;;;;;29.10;9.77;;;;;;;8.79;100.00;100365.81;5015195;28;20053;-81
2021/12/29 10:48:54;;;;;;;24.33;9.70;;;;;;;8.73;100.00;100364.41;5018736;28;20040;-80
2021/12/29 10:51:29;;;;;;;26.55;10.77;;;;;;;8.69;100.00;100357.47;4987036;28;20482;-81
2021/12/29 10:54:04;;;;;;;20.48;10.10;;;;;;;8.69;100.00;100362.06;5000899;28;20033;-81
2021/12/29 10:56:32;;;;;;;30.30;11.18;;;;;;;8.79;100.00;100383.06;5016523;28;20049;-80
2021/12/29 10:58:57;;;;;;;31.92;11.52;;;;;;;8.78;100.00;100388.63;4997052;28;20050;-80
2021/12/29 11:01:23;;;;;;;34.75;11.18;;;;;;;8.72;100.00;100372.72;5001245;28;20037;-80
2021/12/29 11:03:53;;;;;;;25.17;11.30;;;;;;;8.78;100.00;100358.59;4999858;28;20030;-80
2021/12/29 11:06:22;;;;;;;27.65;10.60;;;;;;;8.77;100.00;100359.59;5013224;28;20038;-80
2021/12/29 11:08:52;;;;;;;27.02;11.05;;;;;;;8.80;100.00;100365.66;5000665;28;20038;-80
2021/12/29 11:11:24;;;;;;;27.10;10.30;;;;;;;8.77;100.00;100365.03;4999940;28;20128;-79
2021/12/29 11:13:49;;;;;;;32.60;10.25;;;;;;;8.78;100.00;100373.09;5014505;28;20030;-80
2021/12/29 11:16:17;;;;;;;28.25;11.23;;;;;;;8.74;100.00;100371.63;5018038;28;20041;-79